sensor_id;sensor_type;location;lat;lon;timestamp;temperature;humidity
20162;DHT22;51382;53.180;15.414;2023-04-07T00:08:04;4.70;95.90
20162;DHT22;51382;53.180;15.414;2023-04-07T00:23:15;4.30;96.60
20162;DHT22;51382;53.180;15.414;2023-04-07T00:38:27;3.80;98.40
20162;DHT22;51382;53.180;15.414;2023-04-07T00:53:38;3.70;99.60
20162;DHT22;51382;53.180;15.414;2023-04-07T01:08:49;3.30;99.90
20162;DHT22;51382;53.180;15.414;2023-04-07T01:24:11;3.30;99.90
20162;DHT22;51382;53.180;15.414;2023-04-07T01:39:32;3.50;99.90
20162;DHT22;51382;53.180;15.414;2023-04-07T01:54:45;4.00;99.90
20162;DHT22;51382;53.180;15.414;2023-04-07T02:09:52;4.20;99.90
20162;DHT22;51382;53.180;15.414;2023-04-07T02:25:21;4.20;99.40
20162;DHT22;51382;53.180;15.414;2023-04-07T02:40:33;4.20;98.80
20162;DHT22;51382;53.180;15.414;2023-04-07T02:55:39;4.20;99.30
20162;DHT22;51382;53.180;15.414;2023-04-07T03:10:51;4.10;99.70
20162;DHT22;51382;53.180;15.414;2023-04-07T03:26:04;4.00;99.90
20162;DHT22;51382;53.180;15.414;2023-04-07T03:41:11;3.80;99.90
20162;DHT22;51382;53.180;15.414;2023-04-07T03:56:23;3.80;99.90
20162;DHT22;51382;53.180;15.414;2023-04-07T04:11:35;3.70;99.90
20162;DHT22;51382;53.180;15.414;2023-04-07T04:26:46;3.70;99.90
20162;DHT22;51382;53.180;15.414;2023-04-07T04:41:58;3.70;99.90
20162;DHT22;51382;53.180;15.414;2023-04-07T04:57:11;3.70;99.90
20162;DHT22;51382;53.180;15.414;2023-04-07T05:12:18;3.40;99.90
20162;DHT22;51382;53.180;15.414;2023-04-07T05:27:33;3.50;99.90
20162;DHT22;51382;53.180;15.414;2023-04-07T05:42:51;3.30;99.90
20162;DHT22;51382;53.180;15.414;2023-04-07T05:58:05;3.30;99.90
20162;DHT22;51382;53.180;15.414;2023-04-07T06:13:11;3.40;99.90
20162;DHT22;51382;53.180;15.414;2023-04-07T06:28:26;3.60;99.90
20162;DHT22;51382;53.180;15.414;2023-04-07T06:43:37;3.70;99.90
20162;DHT22;51382;53.180;15.414;2023-04-07T06:58:49;3.90;99.90
20162;DHT22;51382;53.180;15.414;2023-04-07T07:14:00;4.10;99.90
20162;DHT22;51382;53.180;15.414;2023-04-07T07:29:12;4.10;99.90
20162;DHT22;51382;53.180;15.414;2023-04-07T07:44:18;4.10;99.90
20162;DHT22;51382;53.180;15.414;2023-04-07T07:59:24;4.10;99.90
20162;DHT22;51382;53.180;15.414;2023-04-07T08:14:36;4.10;99.90
20162;DHT22;51382;53.180;15.414;2023-04-07T08:29:42;4.10;99.90
20162;DHT22;51382;53.180;15.414;2023-04-07T08:44:54;4.10;99.90
20162;DHT22;51382;53.180;15.414;2023-04-07T09:00:07;4.60;99.90
20162;DHT22;51382;53.180;15.414;2023-04-07T09:15:20;5.10;99.90
20162;DHT22;51382;53.180;15.414;2023-04-07T09:30:32;5.20;99.90
20162;DHT22;51382;53.180;15.414;2023-04-07T09:45:44;5.20;99.90
20162;DHT22;51382;53.180;15.414;2023-04-07T10:00:50;5.30;99.90
20162;DHT22;51382;53.180;15.414;2023-04-07T10:16:03;5.50;99.90
20162;DHT22;51382;53.180;15.414;2023-04-07T10:31:16;5.60;99.90
20162;DHT22;51382;53.180;15.414;2023-04-07T11:17:43;6.30;99.90
20162;DHT22;51382;53.180;15.414;2023-04-07T11:32:54;6.00;99.90
20162;DHT22;51382;53.180;15.414;2023-04-07T11:48:06;5.60;99.90
20162;DHT22;51382;53.180;15.414;2023-04-07T12:03:36;5.40;99.90
20162;DHT22;51382;53.180;15.414;2023-04-07T12:19:03;5.80;99.90
20162;DHT22;51382;53.180;15.414;2023-04-07T12:34:14;6.20;99.90
20162;DHT22;51382;53.180;15.414;2023-04-07T12:49:26;5.90;99.90
20162;DHT22;51382;53.180;15.414;2023-04-07T13:04:38;5.80;99.90
20162;DHT22;51382;53.180;15.414;2023-04-07T13:19:48;6.30;99.90
20162;DHT22;51382;53.180;15.414;2023-04-07T13:34:59;6.40;99.90
20162;DHT22;51382;53.180;15.414;2023-04-07T13:50:11;6.70;99.90
20162;DHT22;51382;53.180;15.414;2023-04-07T14:05:18;6.70;99.90
20162;DHT22;51382;53.180;15.414;2023-04-07T14:20:29;6.60;99.90
20162;DHT22;51382;53.180;15.414;2023-04-07T14:35:41;6.50;99.90
20162;DHT22;51382;53.180;15.414;2023-04-07T14:50:52;7.00;99.90
20162;DHT22;51382;53.180;15.414;2023-04-07T15:05:58;7.00;99.90
20162;DHT22;51382;53.180;15.414;2023-04-07T15:21:10;7.30;99.90
20162;DHT22;51382;53.180;15.414;2023-04-07T15:36:22;7.40;99.90
20162;DHT22;51382;53.180;15.414;2023-04-07T15:51:34;7.80;99.90
20162;DHT22;51382;53.180;15.414;2023-04-07T16:06:45;7.40;99.90
20162;DHT22;51382;53.180;15.414;2023-04-07T16:21:56;7.30;99.90
20162;DHT22;51382;53.180;15.414;2023-04-07T16:37:08;7.40;99.90
20162;DHT22;51382;53.180;15.414;2023-04-07T16:52:20;7.50;99.90
20162;DHT22;51382;53.180;15.414;2023-04-07T17:07:33;7.40;99.90
20162;DHT22;51382;53.180;15.414;2023-04-07T17:22:45;7.20;99.90
20162;DHT22;51382;53.180;15.414;2023-04-07T17:37:56;7.20;99.90
20162;DHT22;51382;53.180;15.414;2023-04-07T17:53:09;7.00;99.90
20162;DHT22;51382;53.180;15.414;2023-04-07T18:08:21;7.00;99.90
20162;DHT22;51382;53.180;15.414;2023-04-07T18:23:33;7.00;99.90
20162;DHT22;51382;53.180;15.414;2023-04-07T18:38:39;6.80;99.90
20162;DHT22;51382;53.180;15.414;2023-04-07T18:53:50;6.70;99.90
20162;DHT22;51382;53.180;15.414;2023-04-07T19:09:02;6.80;99.90
20162;DHT22;51382;53.180;15.414;2023-04-07T19:24:09;6.80;99.90
20162;DHT22;51382;53.180;15.414;2023-04-07T19:39:16;6.70;99.90
20162;DHT22;51382;53.180;15.414;2023-04-07T19:54:22;6.70;99.90
20162;DHT22;51382;53.180;15.414;2023-04-07T20:09:38;6.60;99.90
20162;DHT22;51382;53.180;15.414;2023-04-07T20:24:44;6.50;99.90
20162;DHT22;51382;53.180;15.414;2023-04-07T20:39:51;6.60;99.90
20162;DHT22;51382;53.180;15.414;2023-04-07T20:55:04;6.60;99.90
20162;DHT22;51382;53.180;15.414;2023-04-07T21:10:17;6.50;99.90
20162;DHT22;51382;53.180;15.414;2023-04-07T21:25:23;6.60;99.90
20162;DHT22;51382;53.180;15.414;2023-04-07T21:40:35;6.50;99.90
20162;DHT22;51382;53.180;15.414;2023-04-07T21:55:41;6.30;99.90
20162;DHT22;51382;53.180;15.414;2023-04-07T22:10:55;6.30;99.90
20162;DHT22;51382;53.180;15.414;2023-04-07T22:26:06;6.30;99.90
20162;DHT22;51382;53.180;15.414;2023-04-07T22:41:13;6.30;99.90
20162;DHT22;51382;53.180;15.414;2023-04-07T22:56:24;6.20;99.90
20162;DHT22;51382;53.180;15.414;2023-04-07T23:11:35;6.20;99.90
20162;DHT22;51382;53.180;15.414;2023-04-07T23:26:46;6.20;99.90
20162;DHT22;51382;53.180;15.414;2023-04-07T23:41:58;6.30;99.90
20162;DHT22;51382;53.180;15.414;2023-04-07T23:57:10;6.20;99.90
